createdAt,value
2023-04-12T00:01:58.778Z,100423.28
2023-04-12T00:07:01.029Z,100416.22
2023-04-12T00:12:06.150Z,100403.19
2023-04-12T00:17:07.958Z,100392.72
2023-04-12T00:22:09.782Z,100384.91
2023-04-12T00:27:12.826Z,100364.94
2023-04-12T00:32:15.005Z,100344.91
2023-04-12T00:37:16.724Z,100339.72
2023-04-12T00:42:19.773Z,100336.19
2023-04-12T00:47:21.597Z,100328.41
2023-04-12T00:52:23.516Z,100331.00
2023-04-12T00:57:27.345Z,100324.97
2023-04-12T01:02:30.927Z,100315.50
2023-04-12T01:07:37.322Z,100306.94
2023-04-12T01:12:42.726Z,100305.22
2023-04-12T01:17:51.559Z,100297.50
2023-04-12T01:23:14.950Z,100292.25
2023-04-12T01:28:20.986Z,100284.41
2023-04-12T01:33:22.826Z,100281.81
2023-04-12T01:38:24.736Z,100268.84
2023-04-12T01:43:27.837Z,100258.56
2023-04-12T01:48:29.917Z,100251.69
2023-04-12T01:53:34.765Z,100236.94
2023-04-12T01:58:38.296Z,100226.59
2023-04-12T02:03:40.254Z,100225.69
2023-04-12T02:08:42.084Z,100221.41
2023-04-12T02:13:45.154Z,100214.50
2023-04-12T02:18:47.663Z,100205.09
2023-04-12T02:23:50.350Z,100193.13
2023-04-12T02:28:53.800Z,100186.25
2023-04-12T02:33:55.986Z,100177.72
2023-04-12T02:38:58.399Z,100161.31
2023-04-12T02:44:03.507Z,100146.63
2023-04-12T02:49:05.627Z,100123.31
2023-04-12T02:54:12.818Z,100112.06
2023-04-12T02:59:31.358Z,100106.72
2023-04-12T03:04:51.899Z,100097.16
2023-04-12T03:09:58.450Z,100109.13
2023-04-12T03:15:02.616Z,100096.16
2023-04-12T03:20:07.878Z,100096.97
2023-04-12T03:25:10.442Z,100093.44
2023-04-12T03:30:18.377Z,100081.34
2023-04-12T03:35:21.389Z,100076.16
2023-04-12T03:40:24.566Z,100065.84
2023-04-12T03:45:33.850Z,100052.91
2023-04-12T03:50:44.206Z,100041.66
2023-04-12T03:55:51.835Z,100025.25
2023-04-12T04:00:55.069Z,100013.19
2023-04-12T04:05:57.862Z,100006.28
2023-04-12T04:11:00.843Z,99991.69
2023-04-12T04:16:13.115Z,99978.88
2023-04-12T04:21:15.985Z,99973.78
2023-04-12T04:26:17.910Z,99963.50
2023-04-12T04:31:36.501Z,99958.34
2023-04-12T04:36:41.521Z,99941.94
2023-04-12T04:41:44.711Z,99935.88
2023-04-12T04:47:01.715Z,99930.72
2023-04-12T04:52:04.308Z,99927.28
2023-04-12T04:57:07.907Z,99913.56
2023-04-12T05:02:11.714Z,99913.63
2023-04-12T05:07:14.276Z,99897.28
2023-04-12T05:12:19.132Z,99899.03
2023-04-12T05:17:27.325Z,99888.72
2023-04-12T05:22:29.580Z,99894.03
2023-04-12T05:27:31.947Z,99886.31
2023-04-12T05:32:36.290Z,99876.91
2023-04-12T05:37:38.504Z,99871.84
2023-04-12T05:42:40.303Z,99866.78
2023-04-12T05:47:43.375Z,99858.25
2023-04-12T05:52:45.227Z,99848.88
2023-04-12T05:57:47.453Z,99846.41
2023-04-12T06:02:53.358Z,99839.63
2023-04-12T06:07:55.551Z,99835.53
2023-04-12T06:12:57.229Z,99833.00
2023-04-12T06:18:00.570Z,99830.44
2023-04-12T06:23:02.395Z,99816.69
2023-04-12T06:28:04.582Z,99813.31
2023-04-12T06:33:11.734Z,99800.28
2023-04-12T06:38:14.202Z,99794.22
2023-04-12T06:43:19.047Z,99796.78
2023-04-12T06:48:22.496Z,99779.44
2023-04-12T06:53:24.207Z,99770.78
2023-04-12T06:58:25.872Z,99758.59
2023-04-12T07:03:31.692Z,99754.22
2023-04-12T07:08:34.485Z,99753.34
2023-04-12T07:13:36.622Z,99741.16
2023-04-12T07:18:40.147Z,99731.59
2023-04-12T07:23:41.858Z,99730.69
2023-04-12T07:28:43.521Z,99721.06
2023-04-12T07:33:46.808Z,99709.69
2023-04-12T07:38:49.226Z,99702.72
2023-04-12T07:43:50.965Z,99700.03
2023-04-12T07:48:53.975Z,99688.66
2023-04-12T07:53:55.932Z,99680.75
2023-04-12T07:58:58.058Z,99665.94
2023-04-12T08:04:02.147Z,99659.81
2023-04-12T08:09:04.305Z,99663.19
2023-04-12T08:14:05.979Z,99653.59
2023-04-12T08:19:09.193Z,99646.47
2023-04-12T08:24:10.997Z,99647.16
2023-04-12T08:29:12.727Z,99625.22
2023-04-12T08:34:16.040Z,99612.94
2023-04-12T08:39:17.764Z,99613.69
2023-04-12T08:44:19.581Z,99600.47
2023-04-12T08:49:24.949Z,99596.84
2023-04-12T08:54:27.636Z,99577.59
2023-04-12T08:59:29.530Z,99568.75
2023-04-12T09:09:41.299Z,99538.91
2023-04-12T09:14:44.809Z,99526.34
2023-04-12T09:19:47.795Z,99516.56
2023-04-12T09:24:52.948Z,99506.06
2023-04-12T09:30:06.693Z,99502.50
2023-04-12T09:35:09.995Z,99492.06
2023-04-12T09:40:12.239Z,99489.44
2023-04-12T09:45:25.134Z,99471.94
2023-04-12T09:50:29.580Z,99460.59
2023-04-12T09:55:32.158Z,99460.63
2023-04-12T10:00:34.666Z,99483.34
2023-04-12T10:05:40.591Z,99449.41
2023-04-12T10:10:44.437Z,99455.03
2023-04-12T10:15:46.757Z,99457.16
2023-04-12T10:20:49.809Z,99478.56
2023-04-12T10:25:55.649Z,99463.97
2023-04-12T10:30:57.695Z,99456.47
2023-04-12T10:36:03.638Z,99454.94
2023-04-12T10:41:11.883Z,99446.44
2023-04-12T10:46:50.821Z,99438.63
2023-04-12T10:52:13.259Z,99444.06
2023-04-12T10:57:47.692Z,99431.06
2023-04-12T11:03:07.602Z,99438.13
2023-04-12T11:08:11.866Z,99439.84
2023-04-12T11:13:28.778Z,99444.22
2023-04-12T11:18:30.617Z,99426.88
2023-04-12T11:23:36.210Z,99421.72
2023-04-12T11:28:38.297Z,99411.28
2023-04-12T11:33:40.128Z,99397.50
2023-04-12T11:38:43.889Z,99397.56
2023-04-12T11:43:46.835Z,99383.81
2023-04-12T11:48:48.587Z,99391.75
2023-04-12T11:53:55.453Z,99374.47
2023-04-12T11:58:57.281Z,99358.84
2023-04-12T12:03:59.348Z,99360.63
2023-04-12T12:09:03.915Z,99364.97
2023-04-12T12:14:07.137Z,99353.69
2023-04-12T12:19:08.819Z,99348.50
2023-04-12T12:24:14.685Z,99343.28
2023-04-12T12:29:19.464Z,99327.66
2023-04-12T12:34:21.402Z,99332.09
2023-04-12T12:39:24.445Z,99316.47
2023-04-12T12:44:26.105Z,99314.78
2023-04-12T12:49:27.986Z,99311.25
2023-04-12T12:54:39.568Z,99308.69
2023-04-12T12:59:42.692Z,99302.66
2023-04-12T13:04:44.529Z,99302.63
2023-04-12T13:09:47.744Z,99295.63
2023-04-12T13:14:49.403Z,99278.19
2023-04-12T13:19:52.026Z,99276.34
2023-04-12T13:24:55.724Z,99275.38
2023-04-12T13:29:57.398Z,99264.00
2023-04-12T13:34:59.073Z,99257.84
2023-04-12T13:40:02.246Z,99253.53
2023-04-12T13:45:05.252Z,99254.34
2023-04-12T13:50:08.049Z,99245.78
2023-04-12T13:55:11.485Z,99240.59
2023-04-12T14:00:15.527Z,99239.66
2023-04-12T14:05:17.271Z,99240.50
2023-04-12T14:10:21.018Z,99240.41
2023-04-12T14:15:22.776Z,99227.66
2023-04-12T14:20:24.554Z,99226.00
2023-04-12T14:25:27.778Z,99228.59
2023-04-12T14:30:29.458Z,99237.28
2023-04-12T14:35:31.222Z,99219.81
2023-04-12T14:40:34.813Z,99213.75
2023-04-12T14:45:36.808Z,99213.72
2023-04-12T14:50:39.330Z,99208.50
2023-04-12T14:55:43.959Z,99182.41
2023-04-12T15:00:45.954Z,99161.47
2023-04-12T15:05:48.187Z,99161.28
2023-04-12T15:10:51.256Z,99154.06
2023-04-12T15:15:53.002Z,99161.72
2023-04-12T15:20:54.748Z,99166.13
2023-04-12T15:26:02.496Z,99154.72
2023-04-12T15:31:05.111Z,99171.44
2023-04-12T15:36:07.610Z,99160.97
2023-04-12T15:41:15.091Z,99171.38
2023-04-12T15:46:21.139Z,99162.53
2023-04-12T15:51:24.178Z,99158.91
2023-04-12T15:56:29.646Z,99151.00
2023-04-12T16:01:32.962Z,99138.72
2023-04-12T16:06:35.887Z,99134.28
2023-04-12T16:11:39.230Z,99135.09
2023-04-12T16:16:41.167Z,99125.56
2023-04-12T16:21:44.509Z,99136.00
2023-04-12T16:26:48.072Z,99129.00
2023-04-12T16:31:51.476Z,99132.53
2023-04-12T16:36:53.215Z,99122.00
2023-04-12T16:41:56.679Z,99119.56
2023-04-12T16:46:59.266Z,99104.63
2023-04-12T16:52:01.608Z,99102.97
2023-04-12T16:57:05.729Z,99096.97
2023-04-12T17:02:07.945Z,99102.16
2023-04-12T17:07:10.199Z,99106.38
2023-04-12T17:12:13.422Z,99100.97
2023-04-12T17:17:15.341Z,99094.63
2023-04-12T17:22:18.009Z,99096.38
2023-04-12T17:27:21.997Z,99090.34
2023-04-12T17:32:23.749Z,99089.34
2023-04-12T17:37:25.771Z,99099.84
2023-04-12T17:42:28.845Z,99091.25
2023-04-12T17:47:31.618Z,99089.34
2023-04-12T17:52:34.326Z,99075.47
2023-04-12T17:57:37.496Z,99085.03
2023-04-12T18:02:39.413Z,99082.44
2023-04-12T18:07:42.512Z,99093.88
2023-04-12T18:12:45.642Z,99109.50
2023-04-12T18:17:47.486Z,99120.94
2023-04-12T18:22:49.393Z,99126.16
2023-04-12T18:27:52.417Z,99140.25
2023-04-12T18:32:54.240Z,99142.72
2023-04-12T18:37:56.277Z,99154.88
2023-04-12T18:42:59.527Z,99156.75
2023-04-12T18:48:03.173Z,99161.94
2023-04-12T18:53:04.976Z,99162.88
2023-04-12T18:58:08.244Z,99150.69
2023-04-12T19:03:11.632Z,99135.03
2023-04-12T19:08:13.866Z,99163.75
2023-04-12T19:13:17.067Z,99169.97
2023-04-12T19:18:18.958Z,99168.22
2023-04-12T19:23:21.244Z,99189.22
2023-04-12T19:28:24.687Z,99183.84
2023-04-12T19:33:27.525Z,99206.66
2023-04-12T19:38:29.849Z,99218.88
2023-04-12T19:43:32.899Z,99214.94
2023-04-12T19:48:34.940Z,99224.81
2023-04-12T19:53:36.792Z,99224.28
2023-04-12T19:58:40.792Z,99231.44
2023-04-12T20:03:45.406Z,99240.28
2023-04-12T20:08:47.227Z,99245.63
2023-04-12T20:13:50.941Z,99262.31
2023-04-12T20:18:57.495Z,99269.38
2023-04-12T20:23:59.587Z,99269.38
2023-04-12T20:29:04.269Z,99262.59
2023-04-12T20:34:06.241Z,99272.16
2023-04-12T20:39:08.008Z,99272.13
2023-04-12T20:44:11.126Z,99260.06
2023-04-12T20:49:13.576Z,99266.97
2023-04-12T20:54:16.718Z,99272.28
2023-04-12T20:59:22.732Z,99280.16
2023-04-12T21:04:27.357Z,99284.59
2023-04-12T21:09:29.938Z,99285.53
2023-04-12T21:14:34.935Z,99285.53
2023-04-12T21:19:41.655Z,99282.06
2023-04-12T21:24:43.497Z,99295.09
2023-04-12T21:29:47.238Z,99302.00
2023-04-12T21:34:50.068Z,99301.97
2023-04-12T21:39:51.986Z,99309.88
2023-04-12T21:44:55.048Z,99314.25
2023-04-12T21:49:56.803Z,99329.84
2023-04-12T21:54:58.635Z,99323.75
2023-04-12T22:00:01.800Z,99340.22
2023-04-12T22:05:13.357Z,99337.66
2023-04-12T22:10:16.149Z,99330.75
2023-04-12T22:15:19.543Z,99320.31
2023-04-12T22:20:21.250Z,99333.28
2023-04-12T22:25:23.610Z,99332.41
2023-04-12T22:30:27.224Z,99334.16
2023-04-12T22:35:30.032Z,99344.53
2023-04-12T22:40:31.728Z,99338.50
2023-04-12T22:45:35.753Z,99341.13
2023-04-12T22:50:38.028Z,99333.31
2023-04-12T22:55:39.812Z,99322.94
2023-04-12T23:00:42.876Z,99320.38
2023-04-12T23:05:44.846Z,99315.19
2023-04-12T23:10:46.751Z,99311.75
2023-04-12T23:15:50.038Z,99310.94
2023-04-12T23:20:51.978Z,99312.69
2023-04-12T23:25:54.174Z,99322.25
2023-04-12T23:30:58.917Z,99320.50
2023-04-12T23:36:05.127Z,99303.25
2023-04-12T23:41:08.923Z,99299.75
2023-04-12T23:46:12.116Z,99305.84
2023-04-12T23:51:14.025Z,99305.88
2023-04-12T23:56:15.826Z,99299.81
